Time;durP1;ratioP1;P1;durP2;ratioP2;P2;SDS_P1;SDS_P2;PMS_P1;PMS_P2;Temp;Humidity;BMP_temperature;BMP_pressure;BME280_temperature;BME280_humidity;BME280_pressure;Samples;Min_cycle;Max_cycle;Signal;HPM_P1;HPM_P2
2020/12/01 00:01:51;;;;;;;1.92;1.10;;;12.10;77.80;;;;;;5092247;28;20281;-45
2020/12/01 00:04:17;;;;;;;1.95;0.90;;;12.10;77.80;;;;;;5084008;28;20039;-45
2020/12/01 00:06:43;;;;;;;1.90;1.10;;;12.00;77.70;;;;;;5094834;28;20035;-45
2020/12/01 00:09:09;;;;;;;1.45;0.90;;;12.00;77.70;;;;;;5109574;28;20419;-44
2020/12/01 00:11:36;;;;;;;1.60;1.07;;;12.00;77.70;;;;;;5107165;28;20019;-45
2020/12/01 00:14:02;;;;;;;2.85;0.90;;;12.00;77.80;;;;;;5111379;28;20097;-44
2020/12/01 00:16:28;;;;;;;2.25;0.80;;;12.00;77.70;;;;;;5107369;28;20028;-45
2020/12/01 00:18:54;;;;;;;1.83;1.00;;;12.00;77.80;;;;;;5110167;28;20054;-45
2020/12/01 00:21:21;;;;;;;1.13;0.70;;;12.00;77.80;;;;;;5111515;28;20093;-44
2020/12/01 00:23:47;;;;;;;1.63;0.80;;;12.00;77.70;;;;;;5101988;28;20028;-45
2020/12/01 00:26:17;;;;;;;0.93;0.77;;;12.00;77.70;;;;;;5106606;28;20090;-45
2020/12/01 00:28:43;;;;;;;0.85;0.70;;;11.90;77.80;;;;;;5107270;28;20512;-45
2020/12/01 00:31:10;;;;;;;1.98;0.77;;;11.90;77.80;;;;;;5111705;28;20031;-45
2020/12/01 00:33:36;;;;;;;0.82;0.80;;;11.90;77.90;;;;;;5106679;28;20028;-45
2020/12/01 00:36:02;;;;;;;0.98;0.80;;;11.90;77.70;;;;;;5110560;28;20034;-44
2020/12/01 00:38:28;;;;;;;3.10;0.70;;;11.90;77.70;;;;;;5103400;28;20031;-44
2020/12/01 00:40:54;;;;;;;1.27;0.70;;;11.90;77.70;;;;;;5103457;28;20087;-44
2020/12/01 00:43:20;;;;;;;3.42;0.77;;;11.90;77.70;;;;;;5103417;28;20054;-44
2020/12/01 00:45:47;;;;;;;1.95;0.70;;;11.90;77.70;;;;;;5103440;28;20558;-44
2020/12/01 00:48:14;;;;;;;0.93;0.70;;;11.80;77.60;;;;;;5102916;28;20079;-44
2020/12/01 00:50:40;;;;;;;1.58;0.88;;;11.90;77.70;;;;;;5120314;28;20031;-44
2020/12/01 00:53:06;;;;;;;1.20;0.90;;;11.80;77.60;;;;;;5123773;28;20030;-44
2020/12/01 00:55:32;;;;;;;1.77;0.85;;;11.80;77.60;;;;;;5123821;28;20142;-44
2020/12/01 00:57:58;;;;;;;0.80;0.70;;;11.80;77.60;;;;;;5110945;28;20168;-44
2020/12/01 01:00:27;;;;;;;0.90;0.57;;;11.80;77.60;;;;;;5102072;28;20548;-44
2020/12/01 01:02:53;;;;;;;0.80;0.73;;;11.80;77.70;;;;;;5082991;28;20035;-44
2020/12/01 01:05:19;;;;;;;1.38;0.80;;;11.80;77.70;;;;;;5083121;28;20050;-44
2020/12/01 01:07:45;;;;;;;1.25;0.70;;;11.80;77.70;;;;;;5096740;28;20020;-44
2020/12/01 01:10:25;;;;;;;0.90;0.90;;;11.80;77.60;;;;;;5103151;28;20032;-44
2020/12/01 01:12:51;;;;;;;0.68;0.68;;;11.70;77.60;;;;;;5103137;28;20028;-44
2020/12/01 01:15:18;;;;;;;0.70;0.70;;;11.70;77.70;;;;;;5102806;28;20059;-44
2020/12/01 01:17:44;;;;;;;0.70;0.70;;;11.70;77.60;;;;;;5106444;28;20055;-44
2020/12/01 01:20:10;;;;;;;1.00;0.80;;;11.70;77.60;;;;;;5115875;28;20020;-44
2020/12/01 01:22:37;;;;;;;0.52;0.52;;;11.70;77.60;;;;;;5122128;28;20026;-45
2020/12/01 01:25:03;;;;;;;1.20;0.73;;;11.70;77.60;;;;;;5123350;28;20070;-44
2020/12/01 01:27:30;;;;;;;1.15;0.80;;;11.60;77.40;;;;;;5113375;28;20024;-44
2020/12/01 01:29:56;;;;;;;0.80;0.80;;;11.60;77.40;;;;;;5117473;28;20040;-44
2020/12/01 01:32:22;;;;;;;1.15;0.70;;;11.60;77.50;;;;;;5123509;28;20024;-45
2020/12/01 01:34:48;;;;;;;1.08;0.82;;;11.60;77.50;;;;;;5123715;28;20031;-44
2020/12/01 01:37:14;;;;;;;1.10;0.77;;;11.60;77.40;;;;;;5118305;28;20043;-44
2020/12/01 01:39:40;;;;;;;0.90;0.60;;;11.60;77.50;;;;;;5109910;28;20023;-44
2020/12/01 01:42:08;;;;;;;0.70;0.70;;;11.60;77.60;;;;;;5114543;28;20063;-44
2020/12/01 01:44:34;;;;;;;0.80;0.80;;;11.60;77.40;;;;;;5108345;28;20028;-44
2020/12/01 01:47:19;;;;;;;0.75;0.75;;;11.60;77.50;;;;;;5110825;28;20027;-44
2020/12/01 01:49:45;;;;;;;2.00;0.60;;;11.60;77.50;;;;;;5113297;28;20027;-44
2020/12/01 01:52:20;;;;;;;0.70;0.70;;;11.50;77.40;;;;;;5109112;28;20024;-46
2020/12/01 01:54:46;;;;;;;1.42;0.93;;;11.50;77.40;;;;;;5109756;28;20031;-43
2020/12/01 01:57:12;;;;;;;0.60;0.60;;;11.50;77.40;;;;;;5112570;28;20099;-43
2020/12/01 01:59:39;;;;;;;0.90;0.90;;;11.50;77.40;;;;;;5112894;28;20711;-43
2020/12/01 02:02:05;;;;;;;1.10;1.00;;;11.50;77.50;;;;;;5105762;28;20020;-44
2020/12/01 02:04:31;;;;;;;1.13;0.90;;;11.40;77.40;;;;;;5112730;28;20023;-45
2020/12/01 02:07:01;;;;;;;2.17;0.90;;;11.40;77.50;;;;;;5113467;28;20032;-49
2020/12/01 02:09:40;;;;;;;0.85;0.85;;;11.40;77.50;;;;;;5106019;28;20070;-44
2020/12/01 02:12:06;;;;;;;1.48;0.90;;;11.40;77.50;;;;;;5105106;28;20042;-45
2020/12/01 02:14:37;;;;;;;1.67;1.00;;;11.40;77.50;;;;;;5104607;28;20048;-44
2020/12/01 02:17:26;;;;;;;0.80;0.70;;;11.40;77.50;;;;;;5105156;28;20028;-46
2020/12/01 02:19:54;;;;;;;1.10;1.00;;;11.40;77.50;;;;;;5116255;28;20032;-46
2020/12/01 02:22:22;;;;;;;0.70;0.70;;;11.40;77.50;;;;;;5126674;28;20024;-44
2020/12/01 02:24:48;;;;;;;0.80;0.80;;;11.30;77.40;;;;;;5125129;28;20028;-45
2020/12/01 02:27:16;;;;;;;0.85;0.85;;;11.30;77.40;;;;;;5117318;28;20028;-46
2020/12/01 02:29:45;;;;;;;1.10;1.00;;;11.30;77.40;;;;;;5087757;28;20032;-44
2020/12/01 02:32:11;;;;;;;1.20;1.10;;;11.30;77.40;;;;;;5091701;28;20061;-45
2020/12/01 02:34:41;;;;;;;1.67;1.00;;;11.30;77.40;;;;;;5126109;28;20061;-45
2020/12/01 02:37:07;;;;;;;0.90;0.90;;;11.30;77.40;;;;;;5115538;28;20070;-45
2020/12/01 02:39:34;;;;;;;1.20;0.93;;;11.20;77.30;;;;;;5110407;28;20057;-46
2020/12/01 02:42:01;;;;;;;0.90;0.90;;;11.30;77.40;;;;;;5110255;28;20020;-45
2020/12/01 02:44:28;;;;;;;1.15;0.90;;;11.30;77.50;;;;;;5109069;28;20066;-45
2020/12/01 02:46:59;;;;;;;1.10;1.10;;;11.20;77.40;;;;;;5108061;28;20034;-45
2020/12/01 02:49:25;;;;;;;0.95;0.90;;;11.20;77.40;;;;;;5111587;28;20264;-45
2020/12/01 02:51:51;;;;;;;1.42;1.00;;;11.20;77.50;;;;;;5110090;28;20032;-47
2020/12/01 02:54:17;;;;;;;1.30;1.20;;;11.20;77.30;;;;;;5107141;28;20070;-46
2020/12/01 02:56:45;;;;;;;0.90;0.90;;;11.20;77.30;;;;;;5113549;28;20409;-45
2020/12/01 02:59:12;;;;;;;1.25;1.15;;;11.20;77.50;;;;;;5111578;28;21245;-45
2020/12/01 03:01:39;;;;;;;1.27;0.80;;;11.20;77.40;;;;;;5106254;28;20028;-46
2020/12/01 03:04:05;;;;;;;1.17;1.07;;;11.10;77.40;;;;;;5113005;28;20043;-45
2020/12/01 03:06:31;;;;;;;1.20;1.10;;;11.10;77.40;;;;;;5110861;28;20431;-45
2020/12/01 03:08:58;;;;;;;1.25;1.15;;;11.10;78.20;;;;;;5105155;28;20020;-46
2020/12/01 03:11:24;;;;;;;1.20;1.13;;;11.10;77.50;;;;;;5104959;28;20503;-45
2020/12/01 03:13:50;;;;;;;1.30;1.08;;;11.10;77.50;;;;;;5103744;28;20032;-44
2020/12/01 03:16:16;;;;;;;1.20;1.10;;;11.10;77.40;;;;;;5105245;28;20139;-45
2020/12/01 03:18:44;;;;;;;1.20;1.10;;;11.10;77.50;;;;;;5110087;28;20026;-45
2020/12/01 03:21:14;;;;;;;1.02;0.95;;;11.00;77.30;;;;;;5104713;28;20031;-45
2020/12/01 03:23:44;;;;;;;1.20;1.10;;;11.00;77.30;;;;;;5104903;28;20090;-45
2020/12/01 03:26:15;;;;;;;1.30;1.10;;;11.00;77.40;;;;;;5103428;28;20087;-45
2020/12/01 03:28:45;;;;;;;1.05;0.95;;;11.00;77.30;;;;;;5106681;28;20035;-46
2020/12/01 03:31:12;;;;;;;1.20;0.95;;;11.00;77.30;;;;;;5117216;28;20050;-45
2020/12/01 03:33:38;;;;;;;1.10;1.00;;;11.00;77.30;;;;;;5106278;28;20935;-45
2020/12/01 03:36:04;;;;;;;1.60;1.15;;;11.00;77.40;;;;;;5120519;28;20056;-45
2020/12/01 03:38:30;;;;;;;1.23;1.08;;;11.00;77.40;;;;;;5114847;28;20508;-45
2020/12/01 03:40:57;;;;;;;1.13;1.02;;;10.90;77.40;;;;;;5108657;28;20047;-45
2020/12/01 03:43:23;;;;;;;1.25;1.15;;;10.90;77.40;;;;;;5109855;28;20089;-45
2020/12/01 03:45:49;;;;;;;1.00;0.90;;;10.90;77.40;;;;;;5110300;28;20111;-45
2020/12/01 03:48:15;;;;;;;1.15;1.05;;;10.90;77.30;;;;;;5108752;28;20031;-46
2020/12/01 03:50:42;;;;;;;1.00;1.00;;;10.90;77.30;;;;;;5106499;28;20043;-45
2020/12/01 03:53:08;;;;;;;1.00;0.93;;;10.90;77.40;;;;;;5109363;28;20075;-45
2020/12/01 03:55:34;;;;;;;1.27;1.13;;;10.90;77.40;;;;;;5107906;28;20036;-44
2020/12/01 03:58:01;;;;;;;1.17;1.08;;;10.90;77.40;;;;;;5115191;28;20054;-45
2020/12/01 04:00:28;;;;;;;0.90;0.90;;;10.90;77.40;;;;;;5110367;28;20035;-46
2020/12/01 04:02:54;;;;;;;1.20;1.10;;;10.80;77.30;;;;;;5107627;28;20032;-47
2020/12/01 04:05:21;;;;;;;1.30;1.20;;;10.80;77.40;;;;;;5109493;28;20099;-46
2020/12/01 04:07:48;;;;;;;1.05;1.05;;;10.80;77.40;;;;;;5106553;28;20024;-46
2020/12/01 04:10:15;;;;;;;1.10;1.00;;;10.80;77.30;;;;;;5104107;28;20790;-45
2020/12/01 04:12:41;;;;;;;1.30;1.20;;;10.80;77.40;;;;;;5104076;28;20024;-45
2020/12/01 04:15:08;;;;;;;2.80;1.20;;;10.80;77.30;;;;;;5103767;28;20630;-45
2020/12/01 04:17:34;;;;;;;1.95;1.17;;;10.80;77.30;;;;;;5103945;28;20036;-45
2020/12/01 04:20:00;;;;;;;1.10;1.00;;;10.80;77.40;;;;;;5115306;28;20028;-46
2020/12/01 04:22:26;;;;;;;1.33;1.20;;;10.80;77.30;;;;;;5124188;28;20049;-46
2020/12/01 04:24:52;;;;;;;1.08;0.98;;;10.70;77.30;;;;;;5122755;28;20031;-47
2020/12/01 04:27:19;;;;;;;1.30;1.20;;;10.70;77.40;;;;;;5124092;28;20027;-45
2020/12/01 04:29:45;;;;;;;1.20;1.10;;;10.70;77.30;;;;;;5124095;28;20020;-46
2020/12/01 04:32:11;;;;;;;1.23;1.13;;;10.70;77.30;;;;;;5111400;28;20181;-46
2020/12/01 04:34:37;;;;;;;1.00;1.00;;;10.70;77.30;;;;;;5123963;28;20113;-45
2020/12/01 04:37:04;;;;;;;1.17;1.08;;;10.70;77.30;;;;;;5115223;28;20031;-45
2020/12/01 04:39:30;;;;;;;1.20;1.10;;;10.70;77.30;;;;;;5103689;28;20035;-45
2020/12/01 04:41:56;;;;;;;1.30;1.20;;;10.70;77.30;;;;;;5103282;28;20055;-45
2020/12/01 04:44:29;;;;;;;1.20;1.10;;;10.60;77.40;;;;;;5101956;28;20396;-45
2020/12/01 04:46:55;;;;;;;0.90;0.90;;;10.60;77.30;;;;;;5103630;28;20024;-46
2020/12/01 04:49:29;;;;;;;0.67;0.67;;;10.60;77.30;;;;;;5119231;27;20035;-46
2020/12/01 04:52:01;;;;;;;1.30;1.20;;;10.60;77.30;;;;;;5101690;28;20659;-45
2020/12/01 04:55:01;;;;;;;1.13;1.02;;;10.60;77.30;;;;;;5103290;28;20028;-45
2020/12/01 04:57:45;;;;;;;1.13;1.02;;;10.60;77.40;;;;;;5103194;28;20043;-46
2020/12/01 05:00:26;;;;;;;1.20;1.10;;;10.60;77.40;;;;;;5103392;28;20028;-45
2020/12/01 05:03:14;;;;;;;1.85;1.00;;;10.50;77.30;;;;;;5081503;28;20092;-45
2020/12/01 05:08:48;;;;;;;1.13;1.02;;;10.50;77.40;;;;;;5082937;28;20115;-46
2020/12/01 05:11:40;;;;;;;1.30;1.15;;;10.50;77.40;;;;;;5090130;28;20019;-46
2020/12/01 05:14:42;;;;;;;1.30;1.20;;;10.50;77.40;;;;;;5102210;28;20048;-46
2020/12/01 05:17:14;;;;;;;1.00;1.00;;;10.50;77.40;;;;;;5097877;28;20047;-46
2020/12/01 05:19:42;;;;;;;1.20;1.10;;;10.50;77.40;;;;;;5111621;28;20035;-46
2020/12/01 05:22:08;;;;;;;;;;;10.50;77.40;;;;;;5122260;28;20120;-47
2020/12/01 05:24:43;;;;;;;1.10;1.10;;;10.50;77.40;;;;;;5123580;28;19935;-46
2020/12/01 05:27:27;;;;;;;1.00;1.00;;;10.40;77.40;;;;;;5123371;28;20388;-47
2020/12/01 05:29:59;;;;;;;1.00;1.00;;;10.40;77.30;;;;;;5122734;28;20027;-46
2020/12/01 05:32:26;;;;;;;1.10;1.10;;;10.40;77.40;;;;;;5101542;28;20047;-46
2020/12/01 05:34:53;;;;;;;1.00;1.00;;;10.40;77.40;;;;;;5102880;28;20032;-45
2020/12/01 05:37:19;;;;;;;1.10;0.90;;;10.40;77.50;;;;;;5105606;28;20039;-45
2020/12/01 05:39:45;;;;;;;1.20;1.10;;;10.40;77.40;;;;;;5107849;28;20061;-46
2020/12/01 05:42:19;;;;;;;1.30;1.20;;;10.40;77.50;;;;;;5104084;28;20031;-47
2020/12/01 05:44:56;;;;;;;1.00;1.00;;;10.40;77.40;;;;;;5110743;28;20016;-45
2020/12/01 05:47:26;;;;;;;1.05;1.05;;;10.30;77.40;;;;;;5105839;28;20031;-46
2020/12/01 05:50:18;;;;;;;1.20;1.10;;;10.30;77.50;;;;;;5085974;28;20041;-45
2020/12/01 05:52:54;;;;;;;1.38;1.27;;;10.30;77.50;;;;;;5108349;28;20076;-45
2020/12/01 05:55:24;;;;;;;1.20;1.10;;;10.30;77.50;;;;;;5105612;28;20044;-45
2020/12/01 05:58:08;;;;;;;1.23;1.13;;;10.30;77.50;;;;;;5106005;28;20026;-45
2020/12/01 06:00:38;;;;;;;1.25;1.15;;;10.30;77.40;;;;;;5106812;28;20028;-46
2020/12/01 06:03:17;;;;;;;1.10;1.00;;;10.30;77.50;;;;;;5111896;28;20019;-46
2020/12/01 06:05:45;;;;;;;1.20;1.10;;;10.30;77.60;;;;;;5104688;28;20044;-45
2020/12/01 06:08:53;;;;;;;1.10;1.00;;;10.30;77.50;;;;;;5118978;28;20034;-46
2020/12/01 06:11:38;;;;;;;1.33;1.23;;;10.20;77.40;;;;;;5121702;28;20087;-46
2020/12/01 06:14:33;;;;;;;1.10;1.02;;;10.20;77.30;;;;;;5122883;28;20049;-46
2020/12/01 06:17:12;;;;;;;1.42;1.10;;;10.20;77.30;;;;;;5121653;28;20031;-45
2020/12/01 06:19:54;;;;;;;1.17;1.00;;;10.20;77.50;;;;;;5113283;28;20058;-46
2020/12/01 06:22:20;;;;;;;1.27;1.17;;;10.20;77.50;;;;;;5085901;28;20028;-45
2020/12/01 06:25:21;;;;;;;1.23;1.13;;;10.20;77.50;;;;;;5106086;28;20035;-45
2020/12/01 06:28:00;;;;;;;1.23;1.13;;;10.10;77.40;;;;;;5023156;28;20044;-45
2020/12/01 06:30:54;;;;;;;1.30;1.20;;;10.10;77.40;;;;;;5006862;28;20131;-45
2020/12/01 06:33:38;;;;;;;1.20;1.10;;;10.10;77.50;;;;;;5023448;28;20411;-45
2020/12/01 06:36:39;;;;;;;1.10;1.00;;;10.10;77.40;;;;;;5023360;28;20067;-45
2020/12/01 06:39:26;;;;;;;1.40;1.20;;;10.10;77.60;;;;;;4964558;29;20122;-45
2020/12/01 06:42:36;;;;;;;1.45;1.35;;;10.10;77.60;;;;;;4964526;29;20128;-45
2020/12/01 06:45:24;;;;;;;1.77;1.30;;;10.10;77.50;;;;;;4957015;29;20043;-45
2020/12/01 06:47:51;;;;;;;1.13;1.02;;;10.00;77.40;;;;;;4964692;29;20023;-47
2020/12/01 06:50:19;;;;;;;1.25;1.15;;;10.00;77.50;;;;;;4961365;28;20031;-45
2020/12/01 06:52:56;;;;;;;1.30;1.20;;;10.00;77.40;;;;;;4967612;28;20085;-46
2020/12/01 06:55:50;;;;;;;1.40;1.30;;;10.00;77.50;;;;;;4977694;28;20047;-45
2020/12/01 06:58:41;;;;;;;1.33;1.23;;;10.00;77.60;;;;;;4966856;28;20106;-45
2020/12/01 07:01:22;;;;;;;1.33;1.23;;;10.00;77.50;;;;;;4970717;28;20541;-45
2020/12/01 07:04:04;;;;;;;1.52;1.42;;;10.00;77.50;;;;;;5026309;28;20037;-45
2020/12/01 07:06:36;;;;;;;1.50;1.40;;;10.00;77.50;;;;;;5030105;28;20060;-47
2020/12/01 07:09:07;;;;;;;1.33;1.13;;;10.00;77.40;;;;;;5062190;28;20709;-45
2020/12/01 07:11:34;;;;;;;1.50;1.13;;;10.00;77.50;;;;;;5062189;28;20021;-46
2020/12/01 07:14:03;;;;;;;1.33;1.25;;;10.00;77.40;;;;;;5029077;28;20048;-45
2020/12/01 07:16:39;;;;;;;1.40;1.30;;;9.90;77.40;;;;;;5119320;28;20091;-46
2020/12/01 07:19:22;;;;;;;1.40;1.30;;;9.90;77.40;;;;;;5120538;28;20028;-46
2020/12/01 07:22:14;;;;;;;1.55;1.45;;;9.90;77.50;;;;;;5104848;28;20095;-45
2020/12/01 07:25:11;;;;;;;1.50;1.40;;;9.90;77.50;;;;;;5105680;28;20036;-45
2020/12/01 07:28:05;;;;;;;2.05;1.45;;;9.90;77.40;;;;;;5100032;28;20110;-46
2020/12/01 07:30:53;;;;;;;1.10;1.10;;;9.90;77.50;;;;;;5105069;28;20028;-45
2020/12/01 07:33:28;;;;;;;1.52;1.42;;;9.90;77.50;;;;;;5104526;28;20103;-45
2020/12/01 07:36:11;;;;;;;1.40;1.30;;;9.90;77.40;;;;;;5104563;28;20040;-45
2020/12/01 07:38:39;;;;;;;1.40;1.30;;;9.90;77.50;;;;;;5084469;28;20497;-45
2020/12/01 07:41:23;;;;;;;1.60;1.50;;;9.80;77.40;;;;;;5091012;28;20035;-45
2020/12/01 07:44:06;;;;;;;1.60;1.50;;;9.80;77.40;;;;;;5087807;28;20035;-45
2020/12/01 07:49:15;;;;;;;2.20;1.30;;;9.80;77.50;;;;;;5103526;28;20032;-46
2020/12/01 07:51:41;;;;;;;1.27;1.17;;;9.80;77.50;;;;;;5104551;28;20048;-45
2020/12/01 07:54:08;;;;;;;1.50;1.40;;;9.80;77.50;;;;;;5104061;28;20032;-45
2020/12/01 07:56:37;;;;;;;1.52;1.42;;;9.80;77.50;;;;;;5105226;28;20024;-45
2020/12/01 07:59:12;;;;;;;1.38;1.27;;;9.80;77.50;;;;;;5123378;28;20019;-45
2020/12/01 08:01:39;;;;;;;1.60;1.50;;;9.80;77.60;;;;;;5113283;28;20097;-45
2020/12/01 08:04:25;;;;;;;1.63;1.52;;;9.70;77.40;;;;;;5104174;28;20044;-46
2020/12/01 08:07:05;;;;;;;1.50;1.40;;;9.70;78.10;;;;;;5097499;28;20036;-45
2020/12/01 08:09:31;;;;;;;1.80;1.70;;;9.70;77.40;;;;;;5083827;28;20031;-45
2020/12/01 08:12:03;;;;;;;1.27;1.17;;;9.70;77.50;;;;;;5083914;28;20021;-45
2020/12/01 08:14:30;;;;;;;1.60;1.50;;;9.70;77.40;;;;;;5082014;28;20052;-44
2020/12/01 08:17:14;;;;;;;1.70;1.60;;;9.70;77.40;;;;;;5082451;28;20059;-45
2020/12/01 08:19:40;;;;;;;1.20;1.10;;;9.70;78.10;;;;;;5099333;28;20020;-45
2020/12/01 08:22:07;;;;;;;1.40;1.30;;;9.70;77.40;;;;;;5123124;28;20028;-45
2020/12/01 08:24:38;;;;;;;1.50;1.40;;;9.60;77.40;;;;;;5122435;28;20032;-45
2020/12/01 08:27:20;;;;;;;1.45;1.30;;;9.70;77.50;;;;;;5117914;28;20028;-47
2020/12/01 08:29:47;;;;;;;1.50;1.40;;;9.60;77.50;;;;;;5086825;28;20032;-46
2020/12/01 08:32:28;;;;;;;1.70;1.60;;;9.60;77.40;;;;;;5085614;28;20423;-46
2020/12/01 08:35:20;;;;;;;1.50;1.40;;;9.60;77.40;;;;;;5102428;28;20032;-46
2020/12/01 08:38:15;;;;;;;1.73;1.63;;;9.60;77.50;;;;;;5116926;28;20444;-46
2020/12/01 08:41:00;;;;;;;1.80;1.70;;;9.60;77.40;;;;;;5122521;28;20845;-44
2020/12/01 08:43:47;;;;;;;1.67;1.58;;;9.60;77.50;;;;;;5120434;28;20087;-45
2020/12/01 08:46:20;;;;;;;1.60;1.50;;;9.60;77.50;;;;;;5103021;28;20039;-45
2020/12/01 08:49:06;;;;;;;2.17;1.60;;;9.60;77.50;;;;;;5102148;28;20031;-45
2020/12/01 08:51:37;;;;;;;2.05;1.55;;;9.60;77.50;;;;;;5103474;28;20028;-46
2020/12/01 08:54:10;;;;;;;1.73;1.63;;;9.50;77.60;;;;;;5101655;28;20020;-45
2020/12/01 08:56:50;;;;;;;1.55;1.45;;;9.50;77.50;;;;;;5108725;28;20036;-45
2020/12/01 08:59:22;;;;;;;1.75;1.65;;;9.50;77.50;;;;;;5122322;28;20027;-45
2020/12/01 09:01:48;;;;;;;1.80;1.70;;;9.50;77.50;;;;;;5099012;28;20088;-45
2020/12/01 09:04:28;;;;;;;1.45;1.35;;;9.50;77.50;;;;;;5115354;28;20021;-46
2020/12/01 09:07:04;;;;;;;2.22;1.92;;;9.50;77.60;;;;;;5096795;28;20053;-46
2020/12/01 09:09:32;;;;;;;1.55;1.45;;;9.50;77.50;;;;;;5122264;28;20049;-46
2020/12/01 09:12:20;;;;;;;1.58;1.48;;;9.50;77.60;;;;;;5123667;28;20024;-46
2020/12/01 09:23:35;;;;;;;1.70;1.60;;;9.40;77.50;;;;;;5107537;28;20119;-45
2020/12/01 09:26:04;;;;;;;1.52;1.42;;;9.40;77.50;;;;;;5107678;28;20044;-45
2020/12/01 09:28:31;;;;;;;1.98;1.88;;;9.40;77.50;;;;;;5106407;28;20036;-45
2020/12/01 09:31:04;;;;;;;1.73;1.63;;;9.40;77.60;;;;;;5108421;28;20028;-45
2020/12/01 09:33:30;;;;;;;1.42;1.33;;;9.40;77.60;;;;;;5108639;28;20106;-45
2020/12/01 09:35:56;;;;;;;1.67;1.58;;;9.40;77.60;;;;;;5103165;28;20032;-45
2020/12/01 09:38:23;;;;;;;1.77;1.67;;;9.40;77.60;;;;;;5106006;28;20027;-45
2020/12/01 09:40:51;;;;;;;1.92;1.60;;;9.40;77.60;;;;;;5107447;28;20054;-46
2020/12/01 09:45:46;;;;;;;2.05;1.52;;;9.30;77.50;;;;;;5109406;28;20077;-45
2020/12/01 09:48:22;;;;;;;2.10;1.90;;;9.30;77.50;;;;;;5107508;28;20054;-45
2020/12/01 09:50:49;;;;;;;1.70;1.60;;;9.30;77.60;;;;;;5110262;28;20032;-45
2020/12/01 10:10:10;;;;;;;1.83;1.73;;;9.20;77.60;;;;;;5070085;28;20031;-45
2020/12/01 10:17:49;;;;;;;1.88;1.77;;;9.20;77.60;;;;;;5083393;28;20082;-45
2020/12/01 10:36:28;;;;;;;1.75;1.65;;;9.10;77.50;;;;;;5051347;28;20039;-46
2020/12/01 10:38:55;;;;;;;2.00;1.80;;;9.10;78.30;;;;;;5064917;28;20034;-46
2020/12/01 10:41:31;;;;;;;2.00;1.90;;;9.10;77.50;;;;;;5104725;28;20036;-46
2020/12/01 10:43:57;;;;;;;2.00;1.90;;;9.00;77.50;;;;;;5109599;28;20032;-45
2020/12/01 10:46:23;;;;;;;1.90;1.80;;;9.00;77.50;;;;;;5109130;28;20032;-46
2020/12/01 10:48:49;;;;;;;2.28;2.08;;;9.00;77.50;;;;;;5103453;28;20032;-46
2020/12/01 10:51:16;;;;;;;2.00;1.90;;;9.00;77.60;;;;;;5113000;28;20106;-46
2020/12/01 10:53:42;;;;;;;1.90;1.80;;;9.00;77.50;;;;;;5111855;28;20059;-46
2020/12/01 10:56:08;;;;;;;2.20;2.00;;;9.00;77.60;;;;;;5105156;28;20551;-45
2020/12/01 10:58:34;;;;;;;2.38;1.90;;;9.00;77.50;;;;;;5108369;28;20028;-45
2020/12/01 11:01:01;;;;;;;2.30;2.10;;;9.00;77.50;;;;;;5113735;28;20031;-45
2020/12/01 11:03:28;;;;;;;2.25;2.13;;;8.90;77.50;;;;;;5113153;28;20023;-45
2020/12/01 11:05:54;;;;;;;1.90;1.77;;;8.90;77.50;;;;;;5105507;28;20043;-45
2020/12/01 11:08:21;;;;;;;2.00;1.90;;;8.90;77.60;;;;;;5122675;28;20484;-45
2020/12/01 11:10:47;;;;;;;1.83;1.70;;;8.90;77.50;;;;;;5125774;28;20023;-45
2020/12/01 11:13:13;;;;;;;1.83;1.73;;;8.90;77.50;;;;;;5124401;28;20024;-45
2020/12/01 11:15:39;;;;;;;1.73;1.63;;;8.90;77.40;;;;;;5125041;28;20047;-49
2020/12/01 11:18:08;;;;;;;2.40;2.20;;;8.90;77.50;;;;;;5125544;28;20023;-45
2020/12/01 11:20:35;;;;;;;1.80;1.70;;;8.80;77.50;;;;;;5109340;28;20028;-45
2020/12/01 11:23:01;;;;;;;2.30;2.10;;;8.90;77.50;;;;;;5106013;28;20020;-45
2020/12/01 11:25:27;;;;;;;1.92;1.83;;;8.80;77.40;;;;;;5104778;28;20028;-46
2020/12/01 11:27:53;;;;;;;2.03;1.92;;;8.80;77.50;;;;;;5117621;28;20027;-45
2020/12/01 11:30:21;;;;;;;1.98;1.88;;;8.80;77.50;;;;;;5124710;28;20028;-45
2020/12/01 11:32:47;;;;;;;1.77;1.67;;;8.80;77.60;;;;;;5104958;28;20056;-45
2020/12/01 11:35:14;;;;;;;2.08;1.98;;;8.80;77.60;;;;;;5104534;28;20028;-45
2020/12/01 11:37:41;;;;;;;2.00;1.90;;;8.80;77.60;;;;;;5108356;28;20040;-45
2020/12/01 11:40:07;;;;;;;2.08;1.98;;;8.70;77.60;;;;;;5107579;28;20032;-45
2020/12/01 11:42:34;;;;;;;2.45;2.00;;;8.70;77.60;;;;;;5107830;28;20101;-46
2020/12/01 11:45:00;;;;;;;1.95;1.85;;;8.70;77.50;;;;;;5105581;28;20063;-45
2020/12/01 11:47:26;;;;;;;2.35;2.15;;;8.70;77.50;;;;;;5108039;28;20028;-45
2020/12/01 11:49:52;;;;;;;1.65;1.55;;;8.70;77.50;;;;;;5111730;28;20055;-46
2020/12/01 11:52:18;;;;;;;1.90;1.80;;;8.70;77.60;;;;;;5102568;28;20035;-45
2020/12/01 11:54:44;;;;;;;2.10;1.92;;;8.70;77.60;;;;;;5109699;28;20028;-46
2020/12/01 11:57:11;;;;;;;2.10;2.00;;;8.60;77.50;;;;;;5108162;28;20396;-45
2020/12/01 11:59:37;;;;;;;2.42;2.22;;;8.60;77.60;;;;;;5106622;28;20075;-45
2020/12/01 12:02:03;;;;;;;1.98;1.88;;;8.60;77.50;;;;;;5107717;28;20034;-46
2020/12/01 12:04:29;;;;;;;2.10;1.90;;;8.60;77.60;;;;;;5109091;28;20648;-46
2020/12/01 12:06:55;;;;;;;1.90;1.80;;;8.60;77.60;;;;;;5114380;28;20028;-45
2020/12/01 12:09:22;;;;;;;2.25;2.05;;;8.60;77.50;;;;;;5124295;28;20020;-45
2020/12/01 12:11:48;;;;;;;1.70;1.60;;;8.60;77.60;;;;;;5124429;28;20059;-45
2020/12/01 12:14:15;;;;;;;2.10;2.00;;;8.60;77.60;;;;;;5123986;28;20402;-45
2020/12/01 12:16:41;;;;;;;2.08;1.98;;;8.50;77.50;;;;;;5124553;28;20055;-47
2020/12/01 12:19:07;;;;;;;2.10;1.90;;;8.50;77.60;;;;;;5119996;28;20028;-45
2020/12/01 12:21:33;;;;;;;1.83;1.73;;;8.50;77.60;;;;;;5103611;28;20515;-45
2020/12/01 12:23:59;;;;;;;2.15;1.77;;;8.50;77.60;;;;;;5103757;28;20031;-46
2020/12/01 12:26:25;;;;;;;2.25;2.05;;;8.50;77.50;;;;;;5104328;28;20027;-45
2020/12/01 12:28:52;;;;;;;1.67;1.58;;;8.50;77.50;;;;;;5124292;28;20422;-45
2020/12/01 12:31:18;;;;;;;2.15;1.95;;;8.50;77.60;;;;;;5115371;28;20046;-45
2020/12/01 12:33:45;;;;;;;2.17;1.98;;;8.50;77.60;;;;;;5102527;28;20047;-45
2020/12/01 12:36:11;;;;;;;1.90;1.80;;;8.40;77.60;;;;;;5103184;28;20473;-45
2020/12/01 12:38:37;;;;;;;2.17;1.98;;;8.40;77.60;;;;;;5105983;28;20100;-44
2020/12/01 12:41:03;;;;;;;1.77;1.67;;;8.40;77.60;;;;;;5106166;28;20111;-46
2020/12/01 12:43:30;;;;;;;2.55;2.05;;;8.40;77.60;;;;;;5104461;28;20451;-46
2020/12/01 12:45:56;;;;;;;1.88;1.77;;;8.40;77.60;;;;;;5105047;28;20083;-45
2020/12/01 12:48:23;;;;;;;1.98;1.80;;;8.40;77.60;;;;;;5108488;28;20031;-45
2020/12/01 12:50:49;;;;;;;2.13;2.00;;;8.30;77.60;;;;;;5101229;28;20051;-45
2020/12/01 12:53:15;;;;;;;2.15;2.00;;;8.30;77.60;;;;;;5107007;28;20061;-45
2020/12/01 12:55:42;;;;;;;1.80;1.70;;;8.30;77.70;;;;;;5109097;28;22802;-45
2020/12/01 12:58:08;;;;;;;1.80;1.70;;;8.30;77.60;;;;;;5106366;28;20023;-45
2020/12/01 13:00:34;;;;;;;1.95;1.85;;;8.30;77.70;;;;;;5108707;28;20057;-46
2020/12/01 13:03:01;;;;;;;1.70;1.60;;;8.30;77.70;;;;;;5110591;28;20055;-45
2020/12/01 13:05:27;;;;;;;1.45;1.35;;;8.30;77.60;;;;;;5106355;28;20087;-46
2020/12/01 13:07:54;;;;;;;2.15;1.98;;;8.20;77.60;;;;;;5120087;28;20093;-45
2020/12/01 13:10:20;;;;;;;2.05;1.95;;;8.20;77.60;;;;;;5123280;28;20027;-46
2020/12/01 13:12:46;;;;;;;2.13;1.88;;;8.20;77.60;;;;;;5123427;28;20036;-45
2020/12/01 13:15:13;;;;;;;2.60;1.88;;;8.20;77.60;;;;;;5121282;28;20046;-47
2020/12/01 13:17:40;;;;;;;1.70;1.60;;;8.20;77.60;;;;;;5123730;28;20028;-48
2020/12/01 13:20:08;;;;;;;1.80;1.70;;;8.20;77.60;;;;;;5111154;28;20025;-46
2020/12/01 13:22:34;;;;;;;;;;;8.20;77.60;;;;;;5121470;28;20100;-46
2020/12/01 13:25:00;;;;;;;1.73;1.63;;;8.20;77.60;;;;;;5123195;28;19933;-45
2020/12/01 13:27:26;;;;;;;1.83;1.60;;;8.20;77.70;;;;;;5113984;28;20020;-45
2020/12/01 13:29:52;;;;;;;1.73;1.63;;;8.10;77.70;;;;;;5102856;28;20020;-45
2020/12/01 13:32:18;;;;;;;1.77;1.67;;;8.10;77.60;;;;;;5106172;28;20024;-45
2020/12/01 13:34:44;;;;;;;1.77;1.67;;;8.10;77.70;;;;;;5105748;28;20036;-45
2020/12/01 13:37:11;;;;;;;2.00;1.90;;;8.10;77.70;;;;;;5109134;28;20031;-45
2020/12/01 13:39:37;;;;;;;2.00;1.88;;;8.10;77.70;;;;;;5115472;28;20023;-45
2020/12/01 13:42:03;;;;;;;1.58;1.48;;;8.10;77.70;;;;;;5113804;28;20035;-46
2020/12/01 13:44:29;;;;;;;1.80;1.70;;;8.10;77.70;;;;;;5112286;28;20055;-46
2020/12/01 13:46:55;;;;;;;2.20;1.83;;;8.10;77.60;;;;;;5107919;28;20046;-46
2020/12/01 13:49:22;;;;;;;1.90;1.80;;;8.00;77.70;;;;;;5109015;28;20020;-45
2020/12/01 13:51:48;;;;;;;1.75;1.65;;;8.00;77.80;;;;;;5112518;28;20040;-45
2020/12/01 13:54:14;;;;;;;2.10;1.90;;;8.00;78.40;;;;;;5110599;28;20024;-45
2020/12/01 13:56:46;;;;;;;1.90;1.70;;;8.00;77.70;;;;;;5111874;28;20044;-45
2020/12/01 13:59:13;;;;;;;1.67;1.58;;;8.00;77.70;;;;;;5110344;28;20094;-45
2020/12/01 14:01:39;;;;;;;1.90;1.80;;;8.00;77.70;;;;;;5113584;28;20028;-45
2020/12/01 14:04:05;;;;;;;1.83;1.73;;;8.00;77.70;;;;;;5112498;28;20024;-46
2020/12/01 14:06:33;;;;;;;2.20;2.00;;;8.00;77.70;;;;;;5104312;28;20025;-45